sensor_id;sensor_type;location;lat;lon;timestamp;pressure;altitude;pressure_sealevel;temperature;humidity
13705;BME280;6924;52.122;9.952;2022-07-06T00:01:33;101229.53;;;17.19;64.56
13705;BME280;6924;52.122;9.952;2022-07-06T00:04:01;101230.25;;;17.16;64.74
13705;BME280;6924;52.122;9.952;2022-07-06T00:06:27;101225.69;;;17.15;64.80
13705;BME280;6924;52.122;9.952;2022-07-06T00:08:54;101228.53;;;17.15;65.18
13705;BME280;6924;52.122;9.952;2022-07-06T00:11:22;101227.28;;;16.95;65.32
13705;BME280;6924;52.122;9.952;2022-07-06T00:13:49;101234.03;;;16.90;65.25
13705;BME280;6924;52.122;9.952;2022-07-06T00:16:16;101226.00;;;16.84;65.70
13705;BME280;6924;52.122;9.952;2022-07-06T00:18:43;101222.31;;;16.83;65.56
13705;BME280;6924;52.122;9.952;2022-07-06T00:21:09;101226.00;;;16.84;65.62
13705;BME280;6924;52.122;9.952;2022-07-06T00:23:36;101211.22;;;16.82;65.60
13705;BME280;6924;52.122;9.952;2022-07-06T00:26:03;101214.44;;;16.80;65.59
13705;BME280;6924;52.122;9.952;2022-07-06T00:28:31;101216.59;;;16.74;65.84
13705;BME280;6924;52.122;9.952;2022-07-06T00:30:57;101222.63;;;16.73;65.85
13705;BME280;6924;52.122;9.952;2022-07-06T00:33:24;101221.81;;;16.72;65.61
13705;BME280;6924;52.122;9.952;2022-07-06T00:35:50;101227.00;;;16.70;65.87
13705;BME280;6924;52.122;9.952;2022-07-06T00:38:17;101222.38;;;16.48;66.45
13705;BME280;6924;52.122;9.952;2022-07-06T00:40:43;101223.06;;;16.45;66.42
13705;BME280;6924;52.122;9.952;2022-07-06T00:43:10;101225.09;;;16.27;66.46
13705;BME280;6924;52.122;9.952;2022-07-06T00:45:38;101219.53;;;16.31;66.30
13705;BME280;6924;52.122;9.952;2022-07-06T00:48:05;101218.53;;;16.27;65.54
13705;BME280;6924;52.122;9.952;2022-07-06T00:50:33;101226.94;;;16.32;65.82
13705;BME280;6924;52.122;9.952;2022-07-06T00:53:02;101228.44;;;16.38;65.40
13705;BME280;6924;52.122;9.952;2022-07-06T00:55:30;101217.84;;;16.39;65.38
13705;BME280;6924;52.122;9.952;2022-07-06T00:57:57;101216.34;;;16.41;65.03
13705;BME280;6924;52.122;9.952;2022-07-06T01:00:25;101223.06;;;16.45;64.99
13705;BME280;6924;52.122;9.952;2022-07-06T01:02:54;101217.69;;;16.44;64.94
13705;BME280;6924;52.122;9.952;2022-07-06T01:05:20;101226.25;;;16.44;65.15
13705;BME280;6924;52.122;9.952;2022-07-06T01:07:49;101223.38;;;16.44;64.86
13705;BME280;6924;52.122;9.952;2022-07-06T01:10:17;101224.38;;;16.48;65.14
13705;BME280;6924;52.122;9.952;2022-07-06T01:12:44;101224.88;;;16.50;65.11
13705;BME280;6924;52.122;9.952;2022-07-06T01:15:13;101225.72;;;16.50;65.19
13705;BME280;6924;52.122;9.952;2022-07-06T01:17:40;101217.16;;;16.50;65.45
13705;BME280;6924;52.122;9.952;2022-07-06T01:20:10;101220.00;;;16.50;65.15
13705;BME280;6924;52.122;9.952;2022-07-06T01:22:37;101222.22;;;16.53;65.18
13705;BME280;6924;52.122;9.952;2022-07-06T01:25:05;101229.91;;;16.53;64.85
13705;BME280;6924;52.122;9.952;2022-07-06T01:27:32;101217.66;;;16.52;64.33
13705;BME280;6924;52.122;9.952;2022-07-06T01:29:59;101217.16;;;16.50;64.95
13705;BME280;6924;52.122;9.952;2022-07-06T01:32:26;101216.34;;;16.41;65.51
13705;BME280;6924;52.122;9.952;2022-07-06T01:34:52;101204.91;;;16.41;65.08
13705;BME280;6924;52.122;9.952;2022-07-06T01:37:20;101214.66;;;16.40;65.27
13705;BME280;6924;52.122;9.952;2022-07-06T01:39:46;101212.97;;;16.39;65.58
13705;BME280;6924;52.122;9.952;2022-07-06T01:42:13;101209.44;;;16.42;65.28
13705;BME280;6924;52.122;9.952;2022-07-06T01:44:39;101212.66;;;16.41;65.23
13705;BME280;6924;52.122;9.952;2022-07-06T01:47:06;101218.69;;;16.39;64.98
13705;BME280;6924;52.122;9.952;2022-07-06T01:49:32;101204.75;;;16.38;64.92
13705;BME280;6924;52.122;9.952;2022-07-06T01:51:59;101208.63;;;16.33;65.26
13705;BME280;6924;52.122;9.952;2022-07-06T01:54:27;101211.97;;;16.35;65.15
13705;BME280;6924;52.122;9.952;2022-07-06T01:56:53;101214.00;;;16.35;65.11
13705;BME280;6924;52.122;9.952;2022-07-06T01:59:19;101214.00;;;16.35;64.86
13705;BME280;6924;52.122;9.952;2022-07-06T02:01:46;101207.47;;;16.34;64.32
13705;BME280;6924;52.122;9.952;2022-07-06T02:04:12;101209.81;;;16.32;64.57
13705;BME280;6924;52.122;9.952;2022-07-06T02:06:39;101208.13;;;16.31;64.06
13705;BME280;6924;52.122;9.952;2022-07-06T02:09:05;101207.13;;;16.27;64.08
13705;BME280;6924;52.122;9.952;2022-07-06T02:11:33;101200.94;;;16.25;64.32
13705;BME280;6924;52.122;9.952;2022-07-06T02:14:00;101212.34;;;16.25;63.92
13705;BME280;6924;52.122;9.952;2022-07-06T02:16:26;101211.16;;;16.26;63.21
13705;BME280;6924;52.122;9.952;2022-07-06T02:18:53;101217.19;;;16.24;62.84
13705;BME280;6924;52.122;9.952;2022-07-06T02:21:19;101220.91;;;16.25;63.17
13705;BME280;6924;52.122;9.952;2022-07-06T02:23:46;101219.53;;;16.22;63.54
13705;BME280;6924;52.122;9.952;2022-07-06T02:26:12;101217.06;;;16.21;63.97
13705;BME280;6924;52.122;9.952;2022-07-06T02:28:40;101213.00;;;16.22;63.57
13705;BME280;6924;52.122;9.952;2022-07-06T02:31:07;101217.19;;;16.24;63.74
13705;BME280;6924;52.122;9.952;2022-07-06T02:33:33;101228.09;;;16.22;63.68
13705;BME280;6924;52.122;9.952;2022-07-06T02:35:59;101224.44;;;16.22;63.53
13705;BME280;6924;52.122;9.952;2022-07-06T02:38:26;101219.53;;;16.22;63.87
13705;BME280;6924;52.122;9.952;2022-07-06T02:40:52;101219.53;;;16.22;63.63
13705;BME280;6924;52.122;9.952;2022-07-06T02:43:19;101221.56;;;16.22;63.57
13705;BME280;6924;52.122;9.952;2022-07-06T02:45:46;101224.44;;;16.22;63.41
13705;BME280;6924;52.122;9.952;2022-07-06T02:48:13;101224.75;;;16.20;63.92
13705;BME280;6924;52.122;9.952;2022-07-06T02:50:39;101223.09;;;16.19;64.00
13705;BME280;6924;52.122;9.952;2022-07-06T02:53:06;101222.41;;;16.22;63.83
13705;BME280;6924;52.122;9.952;2022-07-06T02:55:32;101229.97;;;16.18;64.17
13705;BME280;6924;52.122;9.952;2022-07-06T02:57:59;101225.94;;;16.19;64.54
13705;BME280;6924;52.122;9.952;2022-07-06T03:00:25;101225.44;;;16.17;64.23
13705;BME280;6924;52.122;9.952;2022-07-06T03:02:53;101227.47;;;16.17;64.50
13705;BME280;6924;52.122;9.952;2022-07-06T03:05:20;101237.19;;;16.16;64.07
13705;BME280;6924;52.122;9.952;2022-07-06T03:07:46;101230.47;;;16.11;64.37
13705;BME280;6924;52.122;9.952;2022-07-06T03:10:12;101227.78;;;16.06;64.06
13705;BME280;6924;52.122;9.952;2022-07-06T03:12:39;101232.66;;;16.06;64.12
13705;BME280;6924;52.122;9.952;2022-07-06T03:15:06;101236.34;;;16.06;64.55
13705;BME280;6924;52.122;9.952;2022-07-06T03:17:34;101239.19;;;16.06;64.41
13705;BME280;6924;52.122;9.952;2022-07-06T03:20:03;101236.69;;;16.05;64.30
13705;BME280;6924;52.122;9.952;2022-07-06T03:22:29;101235.34;;;16.02;65.10
13705;BME280;6924;52.122;9.952;2022-07-06T03:24:56;101239.06;;;16.03;65.02
13705;BME280;6924;52.122;9.952;2022-07-06T03:27:23;101230.31;;;15.99;64.87
13705;BME280;6924;52.122;9.952;2022-07-06T03:29:49;101232.84;;;16.01;65.31
13705;BME280;6924;52.122;9.952;2022-07-06T03:32:16;101235.34;;;16.02;64.59
13705;BME280;6924;52.122;9.952;2022-07-06T03:34:42;101241.91;;;16.03;64.80
13705;BME280;6924;52.122;9.952;2022-07-06T03:37:10;101232.84;;;16.01;65.40
13705;BME280;6924;52.122;9.952;2022-07-06T03:39:37;101230.31;;;15.99;65.08
13705;BME280;6924;52.122;9.952;2022-07-06T03:42:03;101234.00;;;16.00;65.38
13705;BME280;6924;52.122;9.952;2022-07-06T03:44:30;101230.00;;;16.01;65.17
13705;BME280;6924;52.122;9.952;2022-07-06T03:46:56;101227.13;;;16.01;65.54
13705;BME280;6924;52.122;9.952;2022-07-06T03:49:23;101229.13;;;16.00;65.91
13705;BME280;6924;52.122;9.952;2022-07-06T03:51:52;101233.34;;;16.03;65.49
13705;BME280;6924;52.122;9.952;2022-07-06T03:54:19;101235.19;;;15.99;65.43
13705;BME280;6924;52.122;9.952;2022-07-06T03:56:46;101235.19;;;15.99;65.73
13705;BME280;6924;52.122;9.952;2022-07-06T03:59:12;101241.56;;;15.96;66.08
13705;BME280;6924;52.122;9.952;2022-07-06T04:01:39;101245.75;;;15.98;66.21
13705;BME280;6924;52.122;9.952;2022-07-06T04:04:05;101247.44;;;15.99;66.03
13705;BME280;6924;52.122;9.952;2022-07-06T04:06:32;101241.22;;;15.97;66.19
13705;BME280;6924;52.122;9.952;2022-07-06T04:08:59;101252.81;;;15.92;66.75
13705;BME280;6924;52.122;9.952;2022-07-06T04:11:27;101254.66;;;15.97;66.50
13705;BME280;6924;52.122;9.952;2022-07-06T04:13:54;101259.69;;;16.00;66.39
13705;BME280;6924;52.122;9.952;2022-07-06T04:16:21;101257.34;;;16.02;66.64
13705;BME280;6924;52.122;9.952;2022-07-06T04:18:47;101256.31;;;15.98;67.04
13705;BME280;6924;52.122;9.952;2022-07-06T04:21:14;101256.81;;;16.00;67.24
13705;BME280;6924;52.122;9.952;2022-07-06T04:23:40;101258.84;;;15.99;67.27
13705;BME280;6924;52.122;9.952;2022-07-06T04:26:07;101258.53;;;16.01;67.29
13705;BME280;6924;52.122;9.952;2022-07-06T04:28:34;101250.63;;;15.98;67.45
13705;BME280;6924;52.122;9.952;2022-07-06T04:31:01;101263.72;;;15.90;67.75
13705;BME280;6924;52.122;9.952;2022-07-06T04:33:27;101256.31;;;15.89;67.38
13705;BME280;6924;52.122;9.952;2022-07-06T04:35:54;101265.88;;;15.93;67.53
13705;BME280;6924;52.122;9.952;2022-07-06T04:38:20;101261.00;;;15.94;67.64
13705;BME280;6924;52.122;9.952;2022-07-06T04:40:47;101264.06;;;15.97;67.44
13705;BME280;6924;52.122;9.952;2022-07-06T04:43:13;101265.22;;;15.96;67.81
13705;BME280;6924;52.122;9.952;2022-07-06T04:45:41;101269.44;;;15.99;67.27
13705;BME280;6924;52.122;9.952;2022-07-06T04:48:07;101271.09;;;16.00;67.56
13705;BME280;6924;52.122;9.952;2022-07-06T04:50:34;101275.97;;;15.99;67.51
13705;BME280;6924;52.122;9.952;2022-07-06T04:53:01;101267.09;;;16.01;67.36
13705;BME280;6924;52.122;9.952;2022-07-06T04:55:27;101266.22;;;16.00;67.42
13705;BME280;6924;52.122;9.952;2022-07-06T04:57:54;101268.25;;;16.00;67.36
13705;BME280;6924;52.122;9.952;2022-07-06T05:00:20;101261.88;;;16.03;67.91
13705;BME280;6924;52.122;9.952;2022-07-06T05:02:48;101265.56;;;16.03;67.96
13705;BME280;6924;52.122;9.952;2022-07-06T05:05:14;101258.03;;;16.07;67.89
13705;BME280;6924;52.122;9.952;2022-07-06T05:07:41;101253.66;;;16.10;67.67
13705;BME280;6924;52.122;9.952;2022-07-06T05:10:08;101252.97;;;16.13;67.72
13705;BME280;6924;52.122;9.952;2022-07-06T05:12:35;101258.03;;;16.16;66.90
13705;BME280;6924;52.122;9.952;2022-07-06T05:15:02;101256.31;;;16.15;66.59
13705;BME280;6924;52.122;9.952;2022-07-06T05:17:28;101251.44;;;16.16;66.98
13705;BME280;6924;52.122;9.952;2022-07-06T05:19:56;101257.34;;;16.19;67.44
13705;BME280;6924;52.122;9.952;2022-07-06T05:22:23;101262.72;;;16.21;67.20
13705;BME280;6924;52.122;9.952;2022-07-06T05:24:50;101258.84;;;16.17;67.48
13705;BME280;6924;52.122;9.952;2022-07-06T05:27:17;101266.59;;;16.16;66.18
13705;BME280;6924;52.122;9.952;2022-07-06T05:29:43;101261.72;;;16.17;66.96
13705;BME280;6924;52.122;9.952;2022-07-06T05:32:10;101263.38;;;16.18;67.97
13705;BME280;6924;52.122;9.952;2022-07-06T05:34:36;101273.63;;;16.10;67.90
13705;BME280;6924;52.122;9.952;2022-07-06T05:37:04;101255.81;;;16.13;68.22
13705;BME280;6924;52.122;9.952;2022-07-06T05:39:31;101268.25;;;16.17;67.76
13705;BME280;6924;52.122;9.952;2022-07-06T05:41:57;101272.13;;;16.13;69.05
13705;BME280;6924;52.122;9.952;2022-07-06T05:44:24;101264.56;;;16.25;67.32
13705;BME280;6924;52.122;9.952;2022-07-06T05:46:50;101273.13;;;16.34;66.50
13705;BME280;6924;52.122;9.952;2022-07-06T05:49:16;101273.63;;;16.36;66.53
13705;BME280;6924;52.122;9.952;2022-07-06T05:52:00;101273.28;;;16.29;67.28
13705;BME280;6924;52.122;9.952;2022-07-06T05:54:28;101274.28;;;16.33;66.62
13705;BME280;6924;52.122;9.952;2022-07-06T05:56:55;101271.94;;;16.35;66.54
13705;BME280;6924;52.122;9.952;2022-07-06T05:59:21;101268.88;;;16.40;67.49
13705;BME280;6924;52.122;9.952;2022-07-06T06:01:47;101272.75;;;16.27;67.00
13705;BME280;6924;52.122;9.952;2022-07-06T06:04:14;101272.94;;;16.30;67.41
13705;BME280;6924;52.122;9.952;2022-07-06T06:06:40;101266.41;;;16.21;67.60
13705;BME280;6924;52.122;9.952;2022-07-06T06:09:07;101268.44;;;16.21;68.86
13705;BME280;6924;52.122;9.952;2022-07-06T06:11:34;101276.13;;;16.29;67.98
13705;BME280;6924;52.122;9.952;2022-07-06T06:14:01;101271.59;;;16.45;67.15
13705;BME280;6924;52.122;9.952;2022-07-06T06:16:27;101271.41;;;16.59;68.36
13705;BME280;6924;52.122;9.952;2022-07-06T06:18:54;101269.22;;;16.65;67.38
13705;BME280;6924;52.122;9.952;2022-07-06T06:21:20;101266.00;;;16.66;65.10
13705;BME280;6924;52.122;9.952;2022-07-06T06:23:47;101277.59;;;16.70;65.51
13705;BME280;6924;52.122;9.952;2022-07-06T06:26:13;101272.06;;;16.73;66.21
13705;BME280;6924;52.122;9.952;2022-07-06T06:28:41;101280.78;;;16.68;66.93
13705;BME280;6924;52.122;9.952;2022-07-06T06:31:07;101279.63;;;16.69;65.75
13705;BME280;6924;52.122;9.952;2022-07-06T06:33:34;101275.75;;;16.65;65.59
13705;BME280;6924;52.122;9.952;2022-07-06T06:36:01;101277.41;;;16.66;65.17
13705;BME280;6924;52.122;9.952;2022-07-06T06:38:27;101277.25;;;16.71;66.37
13705;BME280;6924;52.122;9.952;2022-07-06T06:40:54;101275.41;;;16.76;66.72
13705;BME280;6924;52.122;9.952;2022-07-06T06:43:21;101278.25;;;16.84;66.54
13705;BME280;6924;52.122;9.952;2022-07-06T06:45:49;101283.13;;;16.84;66.28
13705;BME280;6924;52.122;9.952;2022-07-06T06:48:15;101286.16;;;16.70;67.21
13705;BME280;6924;52.122;9.952;2022-07-06T06:50:42;101283.63;;;16.77;67.06
13705;BME280;6924;52.122;9.952;2022-07-06T06:53:09;101279.44;;;16.83;66.56
13705;BME280;6924;52.122;9.952;2022-07-06T06:55:35;101285.31;;;16.87;66.97
13705;BME280;6924;52.122;9.952;2022-07-06T06:58:02;101292.19;;;16.94;66.71
13705;BME280;6924;52.122;9.952;2022-07-06T07:00:29;101290.00;;;17.00;65.98
13705;BME280;6924;52.122;9.952;2022-07-06T07:02:56;101298.19;;;17.02;65.42
13705;BME280;6924;52.122;9.952;2022-07-06T07:05:23;101298.06;;;16.98;67.37
13705;BME280;6924;52.122;9.952;2022-07-06T07:07:49;101301.59;;;16.95;66.72
13705;BME280;6924;52.122;9.952;2022-07-06T07:10:16;101291.38;;;16.85;66.17
13705;BME280;6924;52.122;9.952;2022-07-06T07:12:44;101302.78;;;16.94;65.60
13705;BME280;6924;52.122;9.952;2022-07-06T07:15:10;101302.09;;;16.97;64.65
13705;BME280;6924;52.122;9.952;2022-07-06T07:17:37;101302.88;;;17.15;64.21
13705;BME280;6924;52.122;9.952;2022-07-06T07:20:06;101303.13;;;16.92;63.08
13705;BME280;6924;52.122;9.952;2022-07-06T07:22:33;101304.13;;;16.88;64.21
13705;BME280;6924;52.122;9.952;2022-07-06T07:24:59;101306.66;;;16.89;63.91
13705;BME280;6924;52.122;9.952;2022-07-06T07:27:26;101303.13;;;16.92;61.45
13705;BME280;6924;52.122;9.952;2022-07-06T07:29:53;101314.19;;;17.03;60.56
13705;BME280;6924;52.122;9.952;2022-07-06T07:32:19;101308.13;;;17.04;60.61
13705;BME280;6924;52.122;9.952;2022-07-06T07:34:46;101316.34;;;17.06;61.04
13705;BME280;6924;52.122;9.952;2022-07-06T07:37:13;101310.94;;;17.13;60.92
13705;BME280;6924;52.122;9.952;2022-07-06T07:39:40;101314.97;;;17.21;61.46
13705;BME280;6924;52.122;9.952;2022-07-06T07:42:07;101316.63;;;17.22;60.25
13705;BME280;6924;52.122;9.952;2022-07-06T07:44:34;101319.38;;;17.09;60.48
13705;BME280;6924;52.122;9.952;2022-07-06T07:47:00;101323.06;;;17.10;61.32
13705;BME280;6924;52.122;9.952;2022-07-06T07:49:27;101317.19;;;17.06;61.61
13705;BME280;6924;52.122;9.952;2022-07-06T07:51:53;101319.56;;;17.04;60.96
13705;BME280;6924;52.122;9.952;2022-07-06T07:54:21;101317.84;;;17.12;60.55
13705;BME280;6924;52.122;9.952;2022-07-06T07:56:47;101319.69;;;17.17;58.96
13705;BME280;6924;52.122;9.952;2022-07-06T07:59:14;101316.00;;;17.16;58.88
13705;BME280;6924;52.122;9.952;2022-07-06T08:01:40;101315.28;;;17.19;60.22
13705;BME280;6924;52.122;9.952;2022-07-06T08:04:06;101324.66;;;17.28;59.70
13705;BME280;6924;52.122;9.952;2022-07-06T08:06:33;101318.91;;;17.37;58.98
13705;BME280;6924;52.122;9.952;2022-07-06T08:08:59;101328.38;;;17.38;58.29
13705;BME280;6924;52.122;9.952;2022-07-06T08:11:29;101323.63;;;17.42;57.24
13705;BME280;6924;52.122;9.952;2022-07-06T08:13:56;101323.09;;;17.48;58.14
13705;BME280;6924;52.122;9.952;2022-07-06T08:16:22;101325.00;;;17.35;58.44
13705;BME280;6924;52.122;9.952;2022-07-06T08:18:49;101326.50;;;17.42;57.84
13705;BME280;6924;52.122;9.952;2022-07-06T08:21:15;101320.88;;;17.16;58.73
13705;BME280;6924;52.122;9.952;2022-07-06T08:23:42;101319.16;;;17.23;58.95
13705;BME280;6924;52.122;9.952;2022-07-06T08:26:08;101324.03;;;17.23;57.40
13705;BME280;6924;52.122;9.952;2022-07-06T08:28:36;101321.13;;;17.40;57.34
13705;BME280;6924;52.122;9.952;2022-07-06T08:31:02;101317.59;;;17.34;58.60
13705;BME280;6924;52.122;9.952;2022-07-06T08:33:29;101311.69;;;17.40;58.93
13705;BME280;6924;52.122;9.952;2022-07-06T08:35:55;101316.88;;;17.46;58.65
13705;BME280;6924;52.122;9.952;2022-07-06T08:38:22;101314.31;;;17.53;55.60
13705;BME280;6924;52.122;9.952;2022-07-06T08:40:49;101332.28;;;17.63;57.39
13705;BME280;6924;52.122;9.952;2022-07-06T08:43:16;101317.44;;;17.69;56.74
13705;BME280;6924;52.122;9.952;2022-07-06T08:45:44;101330.56;;;17.70;55.34
13705;BME280;6924;52.122;9.952;2022-07-06T08:48:11;101316.53;;;17.86;55.25
13705;BME280;6924;52.122;9.952;2022-07-06T08:50:38;101316.25;;;18.00;55.17
13705;BME280;6924;52.122;9.952;2022-07-06T08:53:05;101318.78;;;18.02;55.43
13705;BME280;6924;52.122;9.952;2022-07-06T08:55:32;101312.00;;;17.76;54.11
13705;BME280;6924;52.122;9.952;2022-07-06T08:57:59;101320.09;;;17.74;53.85
13705;BME280;6924;52.122;9.952;2022-07-06T09:00:25;101318.50;;;17.56;51.24
13705;BME280;6924;52.122;9.952;2022-07-06T09:02:53;101317.75;;;17.38;52.28
13705;BME280;6924;52.122;9.952;2022-07-06T09:05:23;101328.06;;;17.22;55.04
13705;BME280;6924;52.122;9.952;2022-07-06T09:07:51;101327.94;;;17.18;54.19
13705;BME280;6924;52.122;9.952;2022-07-06T09:10:19;101333.31;;;17.20;56.11
13705;BME280;6924;52.122;9.952;2022-07-06T09:12:47;101334.13;;;17.20;54.80
13705;BME280;6924;52.122;9.952;2022-07-06T09:15:14;101336.84;;;17.17;50.88
13705;BME280;6924;52.122;9.952;2022-07-06T09:17:42;101332.94;;;17.21;52.10
13705;BME280;6924;52.122;9.952;2022-07-06T09:20:11;101339.06;;;17.11;50.23
13705;BME280;6924;52.122;9.952;2022-07-06T09:22:39;101334.84;;;17.08;53.57
13705;BME280;6924;52.122;9.952;2022-07-06T09:25:08;101325.94;;;17.10;53.56
13705;BME280;6924;52.122;9.952;2022-07-06T09:27:37;101333.84;;;17.04;53.12
13705;BME280;6924;52.122;9.952;2022-07-06T09:30:05;101331.31;;;17.11;53.25
13705;BME280;6924;52.122;9.952;2022-07-06T09:32:38;101336.50;;;17.18;54.16
13705;BME280;6924;52.122;9.952;2022-07-06T09:35:05;101331.38;;;17.32;54.02
13705;BME280;6924;52.122;9.952;2022-07-06T09:37:32;101340.88;;;17.24;53.52
13705;BME280;6924;52.122;9.952;2022-07-06T09:39:59;101337.06;;;17.41;51.89
13705;BME280;6924;52.122;9.952;2022-07-06T09:42:27;101329.44;;;17.54;52.91
13705;BME280;6924;52.122;9.952;2022-07-06T09:44:54;101327.78;;;17.53;53.73
13705;BME280;6924;52.122;9.952;2022-07-06T09:47:20;101331.22;;;17.67;51.44
13705;BME280;6924;52.122;9.952;2022-07-06T09:49:47;101339.28;;;17.74;53.12
13705;BME280;6924;52.122;9.952;2022-07-06T09:52:14;101337.25;;;17.45;52.33
13705;BME280;6924;52.122;9.952;2022-07-06T09:54:42;101337.66;;;17.64;52.60
13705;BME280;6924;52.122;9.952;2022-07-06T09:57:10;101339.16;;;17.70;52.40
13705;BME280;6924;52.122;9.952;2022-07-06T09:59:37;101326.44;;;17.89;52.23
13705;BME280;6924;52.122;9.952;2022-07-06T10:02:05;101333.16;;;18.14;51.40
13705;BME280;6924;52.122;9.952;2022-07-06T10:04:32;101332.19;;;18.31;51.57
13705;BME280;6924;52.122;9.952;2022-07-06T10:07:00;101327.00;;;18.45;49.75
13705;BME280;6924;52.122;9.952;2022-07-06T10:09:28;101339.34;;;18.46;50.59
13705;BME280;6924;52.122;9.952;2022-07-06T10:11:58;101333.44;;;18.42;49.77
13705;BME280;6924;52.122;9.952;2022-07-06T10:14:26;101332.47;;;18.17;49.74
13705;BME280;6924;52.122;9.952;2022-07-06T10:16:54;101327.19;;;18.28;50.28
13705;BME280;6924;52.122;9.952;2022-07-06T10:19:21;101327.44;;;18.35;50.01
13705;BME280;6924;52.122;9.952;2022-07-06T10:21:48;101330.03;;;18.28;49.39
13705;BME280;6924;52.122;9.952;2022-07-06T10:24:15;101327.84;;;18.25;49.95
13705;BME280;6924;52.122;9.952;2022-07-06T10:26:42;101325.75;;;18.34;50.54
13705;BME280;6924;52.122;9.952;2022-07-06T10:29:10;101334.66;;;18.41;47.61
13705;BME280;6924;52.122;9.952;2022-07-06T10:31:38;101332.06;;;18.48;47.02
13705;BME280;6924;52.122;9.952;2022-07-06T10:34:07;101336.66;;;18.20;46.62
13705;BME280;6924;52.122;9.952;2022-07-06T10:36:39;101334.78;;;18.24;46.92
13705;BME280;6924;52.122;9.952;2022-07-06T10:39:06;101335.72;;;18.36;47.65
13705;BME280;6924;52.122;9.952;2022-07-06T10:41:47;101333.03;;;18.31;46.27
13705;BME280;6924;52.122;9.952;2022-07-06T10:44:20;101317.88;;;18.31;46.16
13705;BME280;6924;52.122;9.952;2022-07-06T10:46:51;101323.13;;;18.29;46.23
13705;BME280;6924;52.122;9.952;2022-07-06T10:49:18;101319.91;;;18.30;45.60
13705;BME280;6924;52.122;9.952;2022-07-06T10:51:44;101322.16;;;18.46;46.39
13705;BME280;6924;52.122;9.952;2022-07-06T10:54:12;101309.41;;;18.55;45.44
13705;BME280;6924;52.122;9.952;2022-07-06T10:56:41;101306.22;;;18.69;44.11
13705;BME280;6924;52.122;9.952;2022-07-06T10:59:09;101301.91;;;18.84;44.34
13705;BME280;6924;52.122;9.952;2022-07-06T11:01:38;101305.06;;;19.04;45.81
13705;BME280;6924;52.122;9.952;2022-07-06T11:04:06;101303.44;;;19.27;43.89
13705;BME280;6924;52.122;9.952;2022-07-06T11:06:35;101295.81;;;19.56;42.20
13705;BME280;6924;52.122;9.952;2022-07-06T11:09:04;101308.75;;;19.74;41.82
13705;BME280;6924;52.122;9.952;2022-07-06T11:11:39;101290.56;;;19.83;41.09
13705;BME280;6924;52.122;9.952;2022-07-06T11:14:08;101288.03;;;19.93;43.50
13705;BME280;6924;52.122;9.952;2022-07-06T11:16:38;101284.31;;;20.05;42.52
13705;BME280;6924;52.122;9.952;2022-07-06T11:19:07;101293.38;;;20.07;39.42
13705;BME280;6924;52.122;9.952;2022-07-06T11:21:44;101293.50;;;20.11;40.64
13705;BME280;6924;52.122;9.952;2022-07-06T11:24:13;101289.44;;;20.12;39.24
13705;BME280;6924;52.122;9.952;2022-07-06T11:26:42;101281.56;;;19.96;39.42
13705;BME280;6924;52.122;9.952;2022-07-06T11:29:10;101280.25;;;19.81;39.95
13705;BME280;6924;52.122;9.952;2022-07-06T11:31:39;101293.31;;;19.79;41.93
13705;BME280;6924;52.122;9.952;2022-07-06T11:34:06;101288.00;;;19.69;42.14
13705;BME280;6924;52.122;9.952;2022-07-06T11:36:34;101280.38;;;19.48;43.01
13705;BME280;6924;52.122;9.952;2022-07-06T11:39:00;101288.88;;;19.45;41.42
13705;BME280;6924;52.122;9.952;2022-07-06T11:41:27;101285.88;;;19.53;41.10
13705;BME280;6924;52.122;9.952;2022-07-06T11:43:54;101291.97;;;19.64;41.39
13705;BME280;6924;52.122;9.952;2022-07-06T11:46:22;101292.72;;;19.73;42.15
13705;BME280;6924;52.122;9.952;2022-07-06T11:48:53;101289.47;;;19.63;42.64
13705;BME280;6924;52.122;9.952;2022-07-06T11:51:20;101284.56;;;19.51;42.71
13705;BME280;6924;52.122;9.952;2022-07-06T11:53:48;101292.19;;;19.47;40.94
13705;BME280;6924;52.122;9.952;2022-07-06T11:56:15;101293.03;;;19.23;42.61
13705;BME280;6924;52.122;9.952;2022-07-06T11:58:45;101286.56;;;19.13;43.81
13705;BME280;6924;52.122;9.952;2022-07-06T12:01:12;101287.91;;;19.16;43.67
13705;BME280;6924;52.122;9.952;2022-07-06T12:03:39;101284.78;;;19.21;44.70
13705;BME280;6924;52.122;9.952;2022-07-06T12:06:14;101283.84;;;19.29;44.42
13705;BME280;6924;52.122;9.952;2022-07-06T12:08:42;101282.03;;;19.37;43.33
13705;BME280;6924;52.122;9.952;2022-07-06T12:11:09;101284.56;;;19.38;43.67
13705;BME280;6924;52.122;9.952;2022-07-06T12:13:36;101280.16;;;19.41;43.46
13705;BME280;6924;52.122;9.952;2022-07-06T12:16:12;101283.50;;;19.43;43.70
13705;BME280;6924;52.122;9.952;2022-07-06T12:18:40;101277.75;;;19.43;44.73
13705;BME280;6924;52.122;9.952;2022-07-06T12:21:09;101275.00;;;19.47;43.63
13705;BME280;6924;52.122;9.952;2022-07-06T12:23:40;101275.34;;;19.57;44.74
13705;BME280;6924;52.122;9.952;2022-07-06T12:26:07;101273.81;;;19.72;44.27
13705;BME280;6924;52.122;9.952;2022-07-06T12:28:33;101266.78;;;19.82;42.64
13705;BME280;6924;52.122;9.952;2022-07-06T12:31:00;101263.50;;;19.96;42.69
13705;BME280;6924;52.122;9.952;2022-07-06T12:33:27;101253.81;;;20.00;42.75
13705;BME280;6924;52.122;9.952;2022-07-06T12:35:53;101260.03;;;20.02;43.49
13705;BME280;6924;52.122;9.952;2022-07-06T12:38:25;101254.84;;;20.08;43.30
13705;BME280;6924;52.122;9.952;2022-07-06T12:40:52;101252.56;;;20.14;43.49
13705;BME280;6924;52.122;9.952;2022-07-06T12:43:37;101256.88;;;20.20;41.05
13705;BME280;6924;52.122;9.952;2022-07-06T12:46:23;101260.78;;;20.28;41.86
13705;BME280;6924;52.122;9.952;2022-07-06T12:48:53;101259.75;;;20.20;41.08
13705;BME280;6924;52.122;9.952;2022-07-06T12:51:20;101264.88;;;20.14;42.05
13705;BME280;6924;52.122;9.952;2022-07-06T12:53:48;101262.91;;;20.02;42.18
13705;BME280;6924;52.122;9.952;2022-07-06T12:56:16;101263.50;;;19.96;42.66
13705;BME280;6924;52.122;9.952;2022-07-06T12:58:57;101265.06;;;19.93;43.21
13705;BME280;6924;52.122;9.952;2022-07-06T13:01:24;101261.47;;;19.84;42.79